Palencia, Spain
Current Conditions -  °F | °C
As of 9:30 PM on Friday 24 Oct 2014 (Local Time) from LEVD Reporting Station
Clear Clear  
Wind Chill: 63°   Ceiling: Unl
Heat Index: 63°   Visibility: 6mi
Dew Point: 50°   Wind: 5mph
Humidity: 63%   Direction: 70°ENE
Pressure: 30.18"   Gusts: NA
Location:  42.01°N, 4.53°W
Report Text: LEVD 241930Z 07004KT CAVOK 17/10 Q1022
Loading
Personal Weather Stations






























Interactive Weather Map
Tropical Storm Tracking
New forecast layout! Learn more

10-Day Weather Forecast

Advertisements
Track Severe Weather on mobile